FW5374 Weather Reports


Display with metric or nautical units.
time (UTC)temp
F
wind
direction
speed
MPH
gust
MPH
rain 1hr
in
rain 24hr
in
rain mn
in
humidity
%
barometer
mb
20200715120904 50 181 3.0 3.0 0.00 0.00 0.00 79 1019.9
20200715120405 50 207 2.0 3.0 0.00 0.00 0.00 79 1019.9
20200715115904 51 190 2.0 5.0 0.00 0.00 0.00 79 1019.9
20200715115411 51 197 4.0 6.0 0.00 0.00 0.00 79 1019.9
20200715114904 51 222 3.0 3.0 0.00 0.00 0.00 78 1019.8
20200715114404 51 191 2.0 3.0 0.00 0.00 0.00 78 1019.7
20200715113405 51 191 5.0 6.0 0.00 0.00 0.00 78 1019.8
20200715111904 51 159 1.0 3.0 0.00 0.00 0.00 77 1019.8
20200715111404 52 161 2.0 3.0 0.00 0.00 0.00 77 1019.8
20200715110404 52 162 4.0 8.0 0.00 0.00 0.00 77 1019.7
20200715105905 52 177 5.0 7.0 0.00 0.00 0.00 77 1019.8
20200715105404 52 190 5.0 8.0 0.00 0.00 0.00 77 1019.6
20200715104904 52 197 5.0 6.0 0.00 0.00 0.00 77 1019.6
20200715104404 52 165 5.0 9.0 0.00 0.00 0.00 76 1019.6
20200715103904 52 215 3.0 6.0 0.00 0.00 0.00 76 1019.7
20200715102905 53 202 5.0 6.0 0.00 0.00 0.00 76 1019.6
20200715101905 53 202 5.0 6.0 0.00 0.00 0.00 75 1019.5
20200715100405 53 206 2.0 5.0 0.00 0.00 0.00 74 1019.4
20200715095904 53 202 3.0 3.0 0.00 0.00 0.00 74 1019.4
20200715094904 54 208 3.0 5.0 0.00 0.00 0.00 74 1019.3
20200715094405 54 208 2.0 3.0 0.00 0.00 0.00 73 1019.3
20200715092404 54 194 1.0 2.0 0.00 0.00 0.00 72 1019.2
20200715091904 55 194 1.0 3.0 0.00 0.00 0.00 72 1019.3
20200715091405 55 189 2.0 3.0 0.00 0.00 0.00 72 1019.3
20200715090904 55 189 2.0 3.0 0.00 0.00 0.00 72 1019.2
20200715090404 55 187 5.0 6.0 0.00 0.00 0.00 72 1019.3
20200715084904 55 213 4.0 6.0 0.00 0.00 0.00 71 1019.2
20200715084404 55 213 3.0 3.0 0.00 0.00 0.00 71 1019.3
20200715083404 55 201 3.0 5.0 0.00 0.00 0.00 72 1019.2
20200715082904 55 205 1.0 2.0 0.00 0.00 0.00 71 1019.2
20200715082405 55 205 0.0 1.0 0.00 0.00 0.00 70 1019.2
20200715081905 56 205 1.0 3.0 0.00 0.00 0.00 69 1019.2
20200715080404 56 205 0.0 1.0 0.00 0.00 0.00 68 1019.2
20200715075404 57 205 1.0 2.0 0.00 0.00 0.00 68 1019.2
20200715074404 57 205 0.0 1.0 0.00 0.00 0.00 67 1019.2
20200715073905 58 205 0.0 1.0 0.00 0.00 0.00 66 1019.1
20200715073404 58 205 0.0 2.0 0.00 0.00 0.00 66 1019.1
20200715072405 58 205 0.0 1.0 0.00 0.00 0.00 65 1019.0
20200715071404 59 205 0.0 1.0 0.00 0.00 0.00 64 1019.0
20200715065905 59 214 0.0 1.0 0.00 0.00 0.00 63 1019.0
20200715065404 59 214 0.0 0.0 0.00 0.00 0.00 63 1018.9
20200715064903 59 214 0.0 1.0 0.00 0.00 0.00 63 1018.9
20200715063904 60 214 1.0 2.0 0.00 0.00 0.00 63 1018.9
20200715063405 60 214 1.0 2.0 0.00 0.00 0.00 62 1019.0
20200715062904 60 214 1.0 1.0 0.00 0.00 0.00 61 1018.9
20200715062405 60 214 0.0 1.0 0.00 0.00 0.00 61 1018.9
20200715061404 61 214 0.0 1.0 0.00 0.00 0.00 60 1018.8
20200715055907 62 214 0.0 1.0 0.00 0.00 0.00 59 1018.8
20200715055403 63 214 0.0 1.0 0.00 0.00 0.00 58 1018.8
20200715054906 63 214 0.0 1.0 0.00 0.00 0.00 57 1018.7
20200715053404 65 214 0.0 1.0 0.00 0.00 0.00 55 1018.8
20200715052905 65 214 0.0 0.0 0.00 0.00 0.00 54 1018.8
20200715052405 65 214 0.0 1.0 0.00 0.00 0.00 54 1018.8
20200715051404 66 213 1.0 3.0 0.00 0.00 0.00 53 1018.6
20200715050404 67 215 1.0 2.0 0.00 0.00 0.00 51 1018.6
20200715045904 67 215 0.0 1.0 0.00 0.00 0.00 51 1018.7
20200715045404 68 215 1.0 1.0 0.00 0.00 0.00 50 1018.5
20200715044903 69 215 0.0 1.0 0.00 0.00 0.00 49 1018.6
20200715044404 69 215 0.0 1.0 0.00 0.00 0.00 48 1018.5
20200715043904 69 215 1.0 2.0 0.00 0.00 0.00 47 1018.6
20200715042904 71 215 1.0 2.0 0.00 0.00 0.00 45 1018.4
20200715042404 71 215 1.0 1.0 0.00 0.00 0.00 44 1018.4
20200715041904 72 215 0.0 1.0 0.00 0.00 0.00 44 1018.3
20200715041404 72 215 2.0 3.0 0.00 0.00 0.00 43 1018.2
20200715040904 72 205 1.0 3.0 0.00 0.00 0.00 42 1018.1
20200715040404 73 203 2.0 5.0 0.00 0.00 0.00 41 1018.1
20200715035904 73 203 3.0 5.0 0.00 0.00 0.00 40 1018.0
20200715034404 74 179 3.0 5.0 0.00 0.00 0.00 39 1018.0
20200715032904 75 188 5.0 7.0 0.00 0.00 0.00 36 1017.8
20200715032404 76 175 5.0 6.0 0.00 0.00 0.00 36 1017.9
20200715031904 76 199 5.0 6.0 0.00 0.00 0.00 35 1017.9
20200715031404 77 186 5.0 6.0 0.00 0.00 0.00 35 1017.9
20200715025904 80 181 4.0 6.0 0.00 0.00 0.00 32 1017.7
20200715025404 81 246 1.0 3.0 0.00 0.00 0.00 30 1017.8
20200715024904 82 246 1.0 3.0 0.00 0.00 0.00 29 1017.8
20200715022904 86 301 1.0 2.0 0.00 0.00 0.00 25 1017.8
20200715022404 87 301 1.0 2.0 0.00 0.00 0.00 24 1017.9
20200715021904 87 302 0.0 2.0 0.00 0.00 0.00 24 1017.9
20200715021404 88 302 1.0 3.0 0.00 0.00 0.00 23 1018.0
20200715020904 88 303 1.0 2.0 0.00 0.00 0.00 23 1018.0
20200715020404 87 333 1.0 2.0 0.00 0.00 0.00 23 1018.0
20200715015904 87 31 1.0 5.0 0.00 0.00 0.00 22 1018.1
20200715014905 88 29 2.0 7.0 0.00 0.00 0.00 22 1018.1
20200715013904 87 34 2.0 3.0 0.00 0.00 0.00 22 1018.0
20200715013405 87 345 2.0 5.0 0.00 0.00 0.00 22 1018.0
20200715012908 87 10 4.0 7.0 0.00 0.00 0.00 22 1018.0
20200715012404 87 15 3.0 6.0 0.00 0.00 0.00 21 1018.0
20200715011906 88 346 3.0 8.0 0.00 0.00 0.00 21 1018.0
20200715011404 87 326 3.0 5.0 0.00 0.00 0.00 21 1018.0
20200715010904 87 27 2.0 5.0 0.00 0.00 0.00 21 1018.1
20200715010404 86 2 4.0 9.0 0.00 0.00 0.00 22 1018.1
20200715005906 87 2 3.0 6.0 0.00 0.00 0.00 22 1018.0
20200715005405 87 2 3.0 8.0 0.00 0.00 0.00 22 1018.1
20200715004906 87 15 5.0 10.0 0.00 0.00 0.00 21 1018.1
20200715004405 87 6 4.0 9.0 0.00 0.00 0.00 22 1018.2
20200715003906 86 323 3.0 12.0 0.00 0.00 0.00 21 1018.3
20200715002408 87 10 5.0 10.0 0.00 0.00 0.00 21 1018.3
20200715001904 87 9 6.0 12.0 0.00 0.00 0.00 21 1018.4
20200715001410 88 357 3.0 10.0 0.00 0.00 0.00 21 1018.4
20200715000904 87 37 3.0 7.0 0.00 0.00 0.00 21 1018.4
20200715000408 87 30 4.0 8.0 0.00 0.00 0.00 21 1018.5
20200714234903 87 10 5.0 12.0 0.00 0.00 0.00 20 1018.5
20200714234404 87 357 6.0 10.0 0.00 0.00 0.00 20 1018.6
20200714233404 87 356 9.0 13.0 0.00 0.00 0.00 20 1018.7
20200714232904 88 0 5.0 12.0 0.00 0.00 0.00 19 1018.8
20200714232404 87 13 4.0 9.0 0.00 0.00 0.00 19 1018.8
20200714231905 88 345 6.0 12.0 0.00 0.00 0.00 19 1018.8
20200714231404 88 11 5.0 7.0 0.00 0.00 0.00 18 1018.8
20200714225905 87 349 3.0 8.0 0.00 0.00 0.00 19 1018.9
20200714225404 87 17 6.0 12.0 0.00 0.00 0.00 19 1019.0
20200714224904 88 35 5.0 12.0 0.00 0.00 0.00 19 1019.0
20200714224404 88 19 5.0 12.0 0.00 0.00 0.00 20 1019.1
20200714223903 88 5 5.0 8.0 0.00 0.00 0.00 19 1019.1
20200714223404 87 311 4.0 9.0 0.00 0.00 0.00 20 1019.1
20200714222904 87 43 5.0 9.0 0.00 0.00 0.00 20 1019.2
20200714222404 87 15 3.0 8.0 0.00 0.00 0.00 19 1019.1
20200714221904 87 26 5.0 12.0 0.00 0.00 0.00 20 1019.2
20200714221404 87 359 5.0 9.0 0.00 0.00 0.00 21 1019.1
20200714220904 87 33 5.0 9.0 0.00 0.00 0.00 20 1019.2
20200714220404 86 354 2.0 10.0 0.00 0.00 0.00 21 1019.3
20200714215904 86 0 5.0 12.0 0.00 0.00 0.00 23 1019.3
20200714215404 86 315 5.0 12.0 0.00 0.00 0.00 22 1019.3
20200714214404 87 311 9.0 14.0 0.00 0.00 0.00 22 1019.3
20200714213904 87 271 5.0 9.0 0.00 0.00 0.00 20 1019.3
20200714213404 87 45 2.0 15.0 0.00 0.00 0.00 20 1019.4
20200714212904 88 40 3.0 12.0 0.00 0.00 0.00 20 1019.5
20200714211904 88 45 5.0 10.0 0.00 0.00 0.00 19 1019.6
20200714211405 87 127 6.0 9.0 0.00 0.00 0.00 19 1019.7
20200714210905 87 119 2.0 7.0 0.00 0.00 0.00 19 1019.7
20200714210405 87 45 3.0 8.0 0.00 0.00 0.00 20 1019.7
20200714205905 86 92 3.0 9.0 0.00 0.00 0.00 19 1019.8
20200714205407 86 7 3.0 7.0 0.00 0.00 0.00 19 1019.8
20200714204405 85 33 4.0 9.0 0.00 0.00 0.00 20 1019.8
20200714203903 85 17 3.0 12.0 0.00 0.00 0.00 21 1019.8
20200714203404 85 30 5.0 10.0 0.00 0.00 0.00 21 1019.8
20200714202904 86 13 4.0 6.0 0.00 0.00 0.00 20 1019.9
20200714202404 86 52 6.0 12.0 0.00 0.00 0.00 19 1019.9
20200714201904 87 86 4.0 7.0 0.00 0.00 0.00 19 1019.9
20200714195407 87 101 1.0 3.0 0.00 0.00 0.00 18 1020.3
20200714194404 87 42 2.0 5.0 0.00 0.00 0.00 19 1020.3
20200714193406 85 45 3.0 9.0 0.00 0.00 0.00 20 1020.4
20200714192906 85 32 2.0 3.0 0.00 0.00 0.00 21 1020.3
20200714192406 85 13 3.0 8.0 0.00 0.00 0.00 22 1020.2
20200714191904 85 34 2.0 3.0 0.00 0.00 0.00 23 1020.4
20200714191405 84 98 1.0 3.0 0.00 0.00 0.00 24 1020.4
20200714190903 84 120 5.0 8.0 0.00 0.00 0.00 23 1020.5
20200714190404 84 79 3.0 3.0 0.00 0.00 0.00 23 1020.6
20200714185903 83 153 2.0 3.0 0.00 0.00 0.00 24 1020.7
20200714185404 83 100 1.0 3.0 0.00 0.00 0.00 24 1020.7
20200714184405 81 84 1.0 2.0 0.00 0.00 0.00 25 1020.8
20200714183904 81 39 1.0 3.0 0.00 0.00 0.00 26 1020.8
20200714183404 81 25 1.0 3.0 0.00 0.00 0.00 26 1020.9
20200714182904 81 355 2.0 3.0 0.00 0.00 0.00 25 1021.0
20200714182405 81 104 1.0 2.0 0.00 0.00 0.00 25 1021.0
20200714181904 81 111 0.0 3.0 0.00 0.00 0.00 27 1021.1
20200714181404 80 123 4.0 7.0 0.00 0.00 0.00 28 1021.0
20200714180903 80 156 2.0 3.0 0.00 0.00 0.00 29 1021.1
20200714175904 79 207 2.0 3.0 0.00 0.00 0.00 31 1021.3
20200714175405 78 217 2.0 3.0 0.00 0.00 0.00 33 1021.2
20200714173404 75 339 1.0 3.0 0.00 0.00 0.00 35 1021.2
20200714172905 76 314 2.0 5.0 0.00 0.00 0.00 35 1021.2
20200714172404 75 282 2.0 3.0 0.00 0.00 0.00 36 1021.2
20200714171905 74 315 2.0 5.0 0.00 0.00 0.00 37 1021.3
20200714171404 74 338 2.0 3.0 0.00 0.00 0.00 37 1021.5
20200714170904 73 274 1.0 3.0 0.00 0.00 0.00 38 1021.5
20200714170405 73 346 1.0 3.0 0.00 0.00 0.00 38 1021.4
20200714165905 72 19 1.0 3.0 0.00 0.00 0.00 39 1021.6
20200714165411 72 22 3.0 3.0 0.00 0.00 0.00 39 1021.6
20200714164907 72 26 2.0 3.0 0.00 0.00 0.00 40 1021.7
20200714163904 71 342 2.0 3.0 0.00 0.00 0.00 40 1021.7
20200714163404 71 297 1.0 3.0 0.00 0.00 0.00 40 1021.7
20200714161904 69 57 1.0 3.0 0.00 0.00 0.00 43 1021.7
20200714160404 68 123 2.0 3.0 0.00 0.00 0.00 47 1021.9
20200714155904 67 31 2.0 3.0 0.00 0.00 0.00 48 1021.8
20200714154904 66 31 2.0 3.0 0.00 0.00 0.00 50 1021.9
20200714154404 65 10 1.0 5.0 0.00 0.00 0.00 51 1021.9
20200714153904 65 50 2.0 3.0 0.00 0.00 0.00 52 1022.0
20200714153406 65 24 2.0 3.0 0.00 0.00 0.00 52 1021.9
20200714152904 64 17 2.0 3.0 0.00 0.00 0.00 53 1022.0
20200714152405 64 28 2.0 3.0 0.00 0.00 0.00 53 1022.1
20200714151904 64 134 1.0 3.0 0.00 0.00 0.00 53 1022.1
20200714150904 63 134 1.0 3.0 0.00 0.00 0.00 54 1022.0
20200714144906 61 127 1.0 2.0 0.00 0.00 0.00 56 1022.0
20200714144404 60 127 0.0 1.0 0.00 0.00 0.00 58 1021.9
20200714142905 58 128 1.0 3.0 0.00 0.00 0.00 63 1022.0
20200714142404 57 127 2.0 3.0 0.00 0.00 0.00 64 1021.9
20200714140904 54 135 2.0 3.0 0.00 0.00 0.00 69 1021.9
20200714135904 52 138 2.0 3.0 0.00 0.00 0.00 72 1021.8
20200714134905 51 198 2.0 3.0 0.00 0.00 0.00 74 1021.7
20200714133905 49 179 4.0 7.0 0.00 0.00 0.00 75 1021.7
20200714132904 49 174 4.0 6.0 0.00 0.00 0.00 77 1021.4
20200714132404 48 171 3.0 5.0 0.00 0.00 0.00 78 1021.4
20200714131905 47 198 2.0 5.0 0.00 0.00 0.00 80 1021.4
20200714131408 47 205 3.0 5.0 0.00 0.00 0.00 81 1021.4
20200714130404 46 208 3.0 6.0 0.00 0.00 0.00 82 1021.3
20200714125909 46 226 3.0 5.0 0.00 0.00 0.00 82 1021.2
20200714125404 46 190 3.0 5.0 0.00 0.00 0.00 82 1021.2
20200714124904 45 194 3.0 6.0 0.00 0.00 0.00 82 1021.2
20200714124404 45 174 5.0 7.0 0.00 0.00 0.00 82 1021.1
20200714123904 46 176 5.0 6.0 0.00 0.00 0.00 82 1021.1
20200714122904 46 165 2.0 5.0 0.00 0.00 0.00 82 1021.1
20200714122404 46 188 1.0 3.0 0.00 0.00 0.00 82 1021.0
20200714121404 45 202 5.0 6.0 0.00 0.00 0.00 82 1020.9